Aviation Digital Data Service (ADDS)

Output produced by METARs form (0405 UTC 20 March 2019)
found at http://www.aviationweather.gov/metar/data/
 
Forecast for: ESSB (STOCKHOLM/BROMMA, SE)
Text: TAF ESSB 200400Z 2005/2012 21009KT CAVOK
Forecast period: 0500 to 0800 UTC 20 March 2019
Forecast type: FROM: standard forecast or significant change
Winds: from the SSW (210 degrees) at 10 MPH (9 knots; 4.6 m/s)
Visibility: 6 or more miles 10+ km)
Ceiling: unknown
Clouds: missing
Weather: NSW  (no significant weather)
Text: TEMPO 2006/2008 4000 -SN BKN012
Forecast period: 0600 to 0800 UTC 20 March 2019
Forecast type: TEMPORARY: The following changes expected for less than half the time period
Visibility: 2.49 miles (4.01 km)
Ceiling: 1200 feet AGL
Clouds: broken clouds at 1200 feet AGL
Weather: -SN  (light snow)
Text: BECMG 2008/2010 BKN010
Forecast period: 0800 to 1200 UTC 20 March 2019
Forecast type: BECOMING: Conditions expected to become as follows by 1000 UTC 20 March 2019
Winds: from the SSW (210 degrees) at 10 MPH (9 knots; 4.6 m/s)
Visibility: 6 or more miles 10+ km)
Ceiling: 1000 feet AGL
Clouds: broken clouds at 1000 feet AGL
Weather: NSW  (no significant weather)
Text: TEMPO 2010/2012 BKN007
Forecast period: 1000 to 1200 UTC 20 March 2019
Forecast type: TEMPORARY: The following changes expected for less than half the time period
Visibility: missing
Ceiling: 700 feet AGL
Clouds: broken clouds at 700 feet AGL
Weather: no significant weather forecast for this period